createdAt,value
2022-09-07T00:00:27.242Z,95855.50
2022-09-07T00:03:14.355Z,95860.81
2022-09-07T00:06:06.732Z,95869.84
2022-09-07T00:08:53.742Z,95873.84
2022-09-07T00:11:40.732Z,95874.53
2022-09-07T00:14:27.718Z,95875.97
2022-09-07T00:17:14.647Z,95881.00
2022-09-07T00:20:02.247Z,95872.25
2022-09-07T00:22:49.353Z,95864.13
2022-09-07T00:25:40.837Z,95862.03
2022-09-07T00:28:28.059Z,95865.09
2022-09-07T00:31:18.939Z,95862.19
2022-09-07T00:34:06.446Z,95863.91
2022-09-07T00:36:53.373Z,95857.50
2022-09-07T00:39:40.459Z,95863.13
2022-09-07T00:42:27.445Z,95863.59
2022-09-07T00:45:21.015Z,95858.09
2022-09-07T00:48:15.213Z,95845.09
2022-09-07T00:51:07.615Z,95838.81
2022-09-07T00:54:04.112Z,95825.25
2022-09-07T00:56:55.593Z,95814.56
2022-09-07T00:59:47.188Z,95817.81
2022-09-07T01:02:34.468Z,95809.06
2022-09-07T01:05:37.582Z,95807.47
2022-09-07T01:08:25.042Z,95798.00
2022-09-07T01:11:12.857Z,95802.31
2022-09-07T01:14:00.026Z,95796.75
2022-09-07T01:17:11.451Z,95794.06
2022-09-07T01:20:17.213Z,95785.09
2022-09-07T01:23:41.171Z,95780.63
2022-09-07T01:27:05.900Z,95772.88
2022-09-07T01:30:05.616Z,95769.63
2022-09-07T01:33:03.607Z,95770.38
2022-09-07T01:36:10.769Z,95781.09
2022-09-07T01:39:02.808Z,95792.75
2022-09-07T01:41:55.775Z,95808.28
2022-09-07T01:44:50.612Z,95815.03
2022-09-07T01:47:43.436Z,95814.63
2022-09-07T01:50:42.008Z,95811.31
2022-09-07T01:53:34.989Z,95820.91
2022-09-07T01:56:32.646Z,95802.41
2022-09-07T01:59:40.348Z,95813.50
2022-09-07T02:02:34.335Z,95811.03
2022-09-07T02:05:30.301Z,95818.50
2022-09-07T02:08:32.319Z,95818.31
2022-09-07T02:11:29.099Z,95820.25
2022-09-07T02:14:23.169Z,95817.03
2022-09-07T02:17:17.186Z,95820.28
2022-09-07T02:20:13.323Z,95812.22
2022-09-07T02:23:04.677Z,95813.41
2022-09-07T02:25:59.078Z,95815.91
2022-09-07T02:28:46.297Z,95827.69
2022-09-07T02:31:33.807Z,95820.25
2022-09-07T02:34:20.973Z,95810.34
2022-09-07T02:37:09.917Z,95814.31
2022-09-07T02:39:57.840Z,95819.84
2022-09-07T02:42:47.598Z,95815.69
2022-09-07T02:46:08.269Z,95814.72
2022-09-07T02:49:24.327Z,95811.09
2022-09-07T02:52:26.815Z,95799.75
2022-09-07T02:55:55.641Z,95795.06
2022-09-07T02:58:57.656Z,95795.81
2022-09-07T03:02:06.853Z,95790.88
2022-09-07T03:04:57.602Z,95796.50
2022-09-07T03:08:10.690Z,95796.28
2022-09-07T03:10:58.408Z,95789.59
2022-09-07T03:13:45.478Z,95795.16
2022-09-07T03:16:33.350Z,95803.00
2022-09-07T03:19:20.325Z,95805.94
2022-09-07T03:22:07.889Z,95802.38
2022-09-07T03:24:54.836Z,95805.94
2022-09-07T03:27:41.799Z,95805.63
2022-09-07T03:30:28.859Z,95809.28
2022-09-07T03:33:16.832Z,95807.00
2022-09-07T03:36:03.924Z,95806.38
2022-09-07T03:38:51.036Z,95805.69
2022-09-07T03:41:38.420Z,95801.47
2022-09-07T03:44:25.539Z,95808.28
2022-09-07T03:47:12.741Z,95803.69
2022-09-07T03:49:59.787Z,95792.41
2022-09-07T03:52:46.746Z,95794.84
2022-09-07T03:55:34.025Z,95792.72
2022-09-07T03:58:21.020Z,95796.63
2022-09-07T04:01:11.085Z,95799.81
2022-09-07T04:04:02.283Z,95793.06
2022-09-07T04:06:50.196Z,95782.22
2022-09-07T04:09:37.142Z,95785.91
2022-09-07T04:12:26.144Z,95793.25
2022-09-07T04:15:13.105Z,95796.22
2022-09-07T04:18:00.606Z,95793.84
2022-09-07T04:20:48.191Z,95802.56
2022-09-07T04:23:38.303Z,95808.91
2022-09-07T04:26:33.616Z,95812.25
2022-09-07T04:29:20.666Z,95813.88
2022-09-07T04:32:07.942Z,95814.28
2022-09-07T04:35:01.587Z,95809.81
2022-09-07T04:37:48.674Z,95816.13
2022-09-07T04:40:36.240Z,95812.56
2022-09-07T04:43:23.274Z,95815.63
2022-09-07T04:46:22.158Z,95810.81
2022-09-07T04:49:11.002Z,95820.44
2022-09-07T04:51:58.061Z,95816.22
2022-09-07T04:54:49.998Z,95818.53
2022-09-07T04:57:37.725Z,95818.03
2022-09-07T05:00:24.761Z,95826.28
2022-09-07T05:03:11.952Z,95831.16
2022-09-07T05:06:07.303Z,95834.72
2022-09-07T05:08:54.597Z,95841.09
2022-09-07T05:11:41.577Z,95849.50
2022-09-07T05:14:28.741Z,95847.91
2022-09-07T05:17:16.165Z,95853.22
2022-09-07T05:20:04.193Z,95858.44
2022-09-07T05:22:59.575Z,95864.53
2022-09-07T05:25:47.114Z,95871.97
2022-09-07T05:28:35.214Z,95878.06
2022-09-07T05:31:23.520Z,95875.34
2022-09-07T05:37:18.063Z,95864.66
2022-09-07T05:40:05.901Z,95870.03
2022-09-07T05:42:52.849Z,95884.25
2022-09-07T05:45:39.907Z,95880.78
2022-09-07T05:48:27.343Z,95893.16
2022-09-07T05:51:14.868Z,95903.09
2022-09-07T05:54:01.835Z,95904.38
2022-09-07T05:56:48.871Z,95901.25
2022-09-07T05:59:35.952Z,95904.63
2022-09-07T06:02:22.921Z,95895.66
2022-09-07T06:05:11.251Z,95872.53
2022-09-07T06:07:58.304Z,95875.13
2022-09-07T06:10:45.536Z,95879.88
2022-09-07T06:13:32.825Z,95877.84
2022-09-07T06:16:20.913Z,95884.50
2022-09-07T06:19:08.745Z,95896.88
2022-09-07T06:21:55.682Z,95886.94
2022-09-07T06:24:42.621Z,95891.78
2022-09-07T06:27:29.639Z,95886.94
2022-09-07T06:30:16.877Z,95866.94
2022-09-07T06:33:03.810Z,95860.25
2022-09-07T06:35:58.814Z,95860.81
2022-09-07T06:38:47.115Z,95868.50
2022-09-07T06:44:42.268Z,95879.22
2022-09-07T06:47:29.322Z,95874.34
2022-09-07T06:50:17.303Z,95877.50
2022-09-07T06:56:14.359Z,95893.97
2022-09-07T06:59:01.357Z,95899.97
2022-09-07T07:01:48.398Z,95871.66
2022-09-07T07:04:40.533Z,95879.91
2022-09-07T07:07:28.004Z,95873.25
2022-09-07T07:10:15.041Z,95894.69
2022-09-07T07:13:01.975Z,95911.53
2022-09-07T07:15:48.985Z,95914.53
2022-09-07T07:18:36.697Z,95923.34
2022-09-07T07:21:24.260Z,95917.44
2022-09-07T07:24:11.307Z,95916.41
2022-09-07T07:26:58.382Z,95922.09
2022-09-07T07:29:46.177Z,95917.00
2022-09-07T07:32:33.095Z,95914.22
2022-09-07T07:35:20.076Z,95901.63
2022-09-07T07:44:22.231Z,95924.97
2022-09-07T07:47:10.071Z,95922.16
2022-09-07T07:56:12.976Z,95900.78
2022-09-07T07:59:00.103Z,95908.56
2022-09-07T08:01:47.210Z,95913.22
2022-09-07T08:04:35.151Z,95911.19
2022-09-07T08:07:22.340Z,95906.28
2022-09-07T08:10:10.285Z,95898.28
2022-09-07T08:12:57.280Z,95907.94
2022-09-07T08:15:47.328Z,95906.22
2022-09-07T08:18:35.464Z,95910.28
2022-09-07T08:21:22.368Z,95926.50
2022-09-07T08:24:09.546Z,95923.56
2022-09-07T08:26:56.730Z,95921.50
2022-09-07T08:29:43.665Z,95917.53
2022-09-07T08:32:30.680Z,95914.25
2022-09-07T08:35:18.252Z,95909.88
2022-09-07T08:38:05.496Z,95896.66
2022-09-07T08:40:53.060Z,95900.41
2022-09-07T08:43:54.967Z,95900.22
2022-09-07T08:46:50.347Z,95882.75
2022-09-07T08:49:49.753Z,95885.09
2022-09-07T08:52:40.971Z,95897.78
2022-09-07T08:55:35.973Z,95889.25
2022-09-07T08:58:48.198Z,95875.63
2022-09-07T09:01:42.526Z,95885.69
2022-09-07T09:04:30.910Z,95879.22
2022-09-07T09:07:56.601Z,95888.88
2022-09-07T09:11:04.202Z,95886.53
2022-09-07T09:14:14.521Z,95888.16
2022-09-07T09:17:09.547Z,95878.13
2022-09-07T09:20:03.217Z,95870.00
2022-09-07T09:22:54.524Z,95858.81
2022-09-07T09:25:58.837Z,95858.59
2022-09-07T09:28:45.732Z,95864.16
2022-09-07T09:31:38.628Z,95865.88
2022-09-07T09:34:29.375Z,95843.53
2022-09-07T09:37:33.860Z,95858.44
2022-09-07T09:40:30.937Z,95856.34
2022-09-07T09:43:21.454Z,95847.13
2022-09-07T09:46:23.542Z,95836.13
2022-09-07T09:49:38.989Z,95844.16
2022-09-07T09:52:31.846Z,95841.69
2022-09-07T09:55:34.878Z,95832.91
2022-09-07T10:04:56.097Z,95821.63
2022-09-07T10:07:52.118Z,95809.59
2022-09-07T10:10:52.691Z,95812.19
2022-09-07T10:13:56.180Z,95808.47
2022-09-07T10:16:44.364Z,95801.41
2022-09-07T10:19:39.493Z,95791.41
2022-09-07T10:22:37.430Z,95804.50
2022-09-07T10:25:44.276Z,95801.88
2022-09-07T10:31:46.966Z,95791.44
2022-09-07T10:35:06.141Z,95768.16
2022-09-07T10:37:57.237Z,95763.28
2022-09-07T10:41:05.876Z,95760.75
2022-09-07T10:43:53.020Z,95759.38
2022-09-07T10:47:02.578Z,95752.50
2022-09-07T10:50:22.980Z,95749.81
2022-09-07T10:53:42.325Z,95749.00
2022-09-07T10:56:53.212Z,95746.31
2022-09-07T11:00:10.708Z,95739.25
2022-09-07T11:03:35.060Z,95715.41
2022-09-07T11:06:25.186Z,95720.47
2022-09-07T11:09:51.352Z,95732.88
2022-09-07T11:12:41.753Z,95735.50
2022-09-07T11:15:33.116Z,95726.00
2022-09-07T11:18:27.966Z,95717.75
2022-09-07T11:21:56.156Z,95721.22
2022-09-07T11:24:41.527Z,95716.75
2022-09-07T11:27:36.459Z,95714.00
2022-09-07T11:30:37.285Z,95707.47
2022-09-07T11:33:30.421Z,95702.00
2022-09-07T11:36:21.022Z,95728.63
2022-09-07T11:39:17.056Z,95716.19
2022-09-07T11:42:43.208Z,95721.00
2022-09-07T11:45:41.263Z,95722.91
2022-09-07T11:48:36.639Z,95711.00
2022-09-07T11:51:38.844Z,95724.81
2022-09-07T11:54:44.084Z,95733.34
2022-09-07T11:57:55.896Z,95727.28
2022-09-07T12:01:07.015Z,95720.69
2022-09-07T12:04:13.239Z,95740.56
2022-09-07T12:07:28.192Z,95733.00
2022-09-07T12:10:33.263Z,95708.09
2022-09-07T12:13:37.051Z,95707.88
2022-09-07T12:16:37.398Z,95697.44
2022-09-07T12:19:26.948Z,95675.06
2022-09-07T12:22:23.295Z,95674.75
2022-09-07T12:25:18.471Z,95677.47
2022-09-07T12:28:05.517Z,95678.22
2022-09-07T12:31:01.148Z,95666.91
2022-09-07T12:34:26.562Z,95664.81
2022-09-07T12:37:16.631Z,95660.75
2022-09-07T12:40:32.238Z,95662.13
2022-09-07T12:43:19.073Z,95663.13
2022-09-07T12:46:18.977Z,95662.25
2022-09-07T12:49:20.519Z,95644.59
2022-09-07T12:52:47.682Z,95645.31
2022-09-07T12:59:28.548Z,95623.13
2022-09-07T13:02:34.649Z,95621.94
2022-09-07T13:05:32.845Z,95632.72
2022-09-07T13:08:19.663Z,95625.63
2022-09-07T13:11:22.085Z,95631.44
2022-09-07T13:14:15.994Z,95630.66
2022-09-07T13:17:43.347Z,95612.88
2022-09-07T13:20:36.161Z,95619.63
2022-09-07T13:23:26.594Z,95618.00
2022-09-07T13:26:52.116Z,95620.75
2022-09-07T13:29:49.191Z,95634.38
2022-09-07T13:35:45.664Z,95628.75
2022-09-07T13:38:36.601Z,95627.44
2022-09-07T13:41:29.836Z,95627.16
2022-09-07T13:44:26.542Z,95624.88
2022-09-07T13:47:37.950Z,95622.56
2022-09-07T13:50:33.871Z,95624.78
2022-09-07T13:53:37.658Z,95615.03
2022-09-07T13:56:45.941Z,95592.06
2022-09-07T13:59:35.412Z,95591.75
2022-09-07T14:02:42.897Z,95600.56
2022-09-07T14:05:29.992Z,95591.97
2022-09-07T14:08:25.271Z,95586.56
2022-09-07T14:11:22.196Z,95583.22
2022-09-07T14:14:18.336Z,95585.16
2022-09-07T14:17:11.057Z,95574.06
2022-09-07T14:19:59.851Z,95556.56
2022-09-07T14:22:50.604Z,95566.03
2022-09-07T14:28:51.112Z,95557.53
2022-09-07T14:31:38.256Z,95557.75
2022-09-07T14:34:31.273Z,95561.09
2022-09-07T14:37:21.315Z,95558.56
2022-09-07T14:40:21.948Z,95564.31
2022-09-07T14:43:33.097Z,95555.84
2022-09-07T14:46:29.474Z,95544.59
2022-09-07T14:49:20.075Z,95534.53
2022-09-07T14:52:07.128Z,95522.97
2022-09-07T14:54:54.192Z,95513.00
2022-09-07T14:57:41.360Z,95535.06
2022-09-07T15:00:31.636Z,95530.28
2022-09-07T15:03:41.767Z,95516.91
2022-09-07T15:09:46.195Z,95517.09
2022-09-07T15:12:38.785Z,95516.78
2022-09-07T15:15:30.431Z,95513.47
2022-09-07T15:18:55.718Z,95509.97
2022-09-07T15:21:44.015Z,95507.03
2022-09-07T15:24:31.142Z,95528.69
2022-09-07T15:27:27.121Z,95531.41
2022-09-07T15:30:14.099Z,95527.63
2022-09-07T15:33:01.311Z,95542.03
2022-09-07T15:35:52.428Z,95537.13
2022-09-07T15:41:47.074Z,95543.25
2022-09-07T15:44:34.223Z,95539.00
2022-09-07T15:50:28.252Z,95538.88
2022-09-07T15:56:22.661Z,95525.59
2022-09-07T15:59:11.043Z,95531.44
2022-09-07T16:01:58.598Z,95525.69
2022-09-07T16:04:45.885Z,95531.41
2022-09-07T16:10:41.354Z,95533.41
2022-09-07T16:13:31.430Z,95527.19
2022-09-07T16:16:18.930Z,95535.31
2022-09-07T16:19:07.187Z,95536.75
2022-09-07T16:21:58.847Z,95539.28
2022-09-07T16:24:45.876Z,95526.09
2022-09-07T16:27:33.807Z,95528.47
2022-09-07T16:30:22.315Z,95543.44
2022-09-07T16:33:09.368Z,95538.09
2022-09-07T16:36:01.494Z,95531.22
2022-09-07T16:38:48.698Z,95523.38
2022-09-07T16:41:35.860Z,95523.69
2022-09-07T16:44:23.229Z,95519.56
2022-09-07T16:47:10.627Z,95515.47
2022-09-07T16:49:57.643Z,95515.28
2022-09-07T16:52:45.966Z,95509.72
2022-09-07T16:55:33.220Z,95513.66
2022-09-07T16:58:36.216Z,95518.00
2022-09-07T17:01:27.099Z,95520.16
2022-09-07T17:04:14.609Z,95518.69
2022-09-07T17:07:02.392Z,95520.13
2022-09-07T17:09:49.775Z,95516.38
2022-09-07T17:12:38.155Z,95516.81
2022-09-07T17:15:25.239Z,95514.84
2022-09-07T17:18:12.664Z,95511.56
2022-09-07T17:21:01.042Z,95512.56
2022-09-07T17:23:54.350Z,95505.41
2022-09-07T17:26:42.736Z,95493.16
2022-09-07T17:29:37.136Z,95503.34
2022-09-07T17:32:26.958Z,95501.97
2022-09-07T17:35:14.203Z,95491.19
2022-09-07T17:38:01.447Z,95488.78
2022-09-07T17:40:48.387Z,95481.91
2022-09-07T17:43:55.064Z,95477.63
2022-09-07T17:46:42.073Z,95475.00
2022-09-07T17:49:29.489Z,95476.84
2022-09-07T17:52:16.395Z,95483.47
2022-09-07T17:55:04.015Z,95487.81
2022-09-07T17:57:50.921Z,95483.81
2022-09-07T18:00:37.881Z,95477.41
2022-09-07T18:03:24.980Z,95470.13
2022-09-07T18:06:13.287Z,95488.22
2022-09-07T18:09:02.722Z,95490.97
2022-09-07T18:11:50.327Z,95491.66
2022-09-07T18:14:37.801Z,95491.72
2022-09-07T18:17:24.768Z,95495.19
2022-09-07T18:20:11.854Z,95492.81
2022-09-07T18:22:58.723Z,95489.69
2022-09-07T18:25:56.174Z,95494.59
2022-09-07T18:31:50.169Z,95497.09
2022-09-07T18:34:39.244Z,95491.88
2022-09-07T18:37:27.427Z,95497.47
2022-09-07T18:40:14.632Z,95505.63
2022-09-07T18:43:04.236Z,95503.56
2022-09-07T18:45:52.036Z,95500.34
2022-09-07T18:48:39.099Z,95497.81
2022-09-07T18:51:26.463Z,95497.19
2022-09-07T18:54:13.435Z,95507.75
2022-09-07T18:57:00.571Z,95517.50
2022-09-07T18:59:47.585Z,95511.50
2022-09-07T19:02:35.258Z,95512.94
2022-09-07T19:08:37.294Z,95534.53
2022-09-07T19:11:27.306Z,95524.94
2022-09-07T19:14:14.415Z,95531.56
2022-09-07T19:17:01.483Z,95526.03
2022-09-07T19:19:48.732Z,95522.09
2022-09-07T19:22:35.798Z,95523.47
2022-09-07T19:25:23.935Z,95532.88
2022-09-07T19:28:10.985Z,95544.81
2022-09-07T19:31:07.665Z,95540.16
2022-09-07T19:33:59.138Z,95534.19
2022-09-07T19:36:46.108Z,95532.03
2022-09-07T19:39:33.371Z,95521.16
2022-09-07T19:42:20.875Z,95509.88
2022-09-07T19:45:08.395Z,95509.56
2022-09-07T19:47:55.396Z,95516.97
2022-09-07T19:50:42.622Z,95517.53
2022-09-07T19:53:34.000Z,95522.28
2022-09-07T19:56:24.173Z,95525.16
2022-09-07T19:59:12.299Z,95509.81
2022-09-07T20:01:59.252Z,95509.16
2022-09-07T20:04:46.220Z,95502.44
2022-09-07T20:07:33.175Z,95500.28
2022-09-07T20:10:20.620Z,95495.13
2022-09-07T20:13:08.013Z,95493.31
2022-09-07T20:15:55.372Z,95490.00
2022-09-07T20:18:43.149Z,95487.34
2022-09-07T20:21:30.258Z,95481.69
2022-09-07T20:24:22.249Z,95475.78
2022-09-07T20:27:09.662Z,95481.81
2022-09-07T20:29:56.580Z,95485.84
2022-09-07T20:32:44.476Z,95477.09
2022-09-07T20:35:31.632Z,95474.78
2022-09-07T20:38:20.755Z,95464.03
2022-09-07T20:41:11.076Z,95462.56
2022-09-07T20:44:00.103Z,95454.63
2022-09-07T20:46:47.382Z,95452.13
2022-09-07T20:49:34.367Z,95444.84
2022-09-07T20:52:21.250Z,95449.63
2022-09-07T20:55:08.765Z,95453.28
2022-09-07T20:57:56.495Z,95457.56
2022-09-07T21:00:43.450Z,95451.13
2022-09-07T21:03:30.885Z,95459.25
2022-09-07T21:06:19.564Z,95459.22
2022-09-07T21:09:06.568Z,95462.47
2022-09-07T21:11:56.887Z,95464.94
2022-09-07T21:14:46.072Z,95549.78
2022-09-07T21:17:32.970Z,95586.00
2022-09-07T21:20:20.033Z,95554.88
2022-09-07T21:23:07.215Z,95558.19
2022-09-07T21:25:54.441Z,95566.78
2022-09-07T21:28:41.438Z,95603.81
2022-09-07T21:31:30.200Z,95646.91
2022-09-07T21:34:17.281Z,95658.66
2022-09-07T21:37:04.352Z,95682.88
2022-09-07T21:39:51.358Z,95672.50
2022-09-07T21:42:38.738Z,95652.84
2022-09-07T21:45:25.876Z,95649.94
2022-09-07T21:48:12.909Z,95639.28
2022-09-07T21:51:00.092Z,95624.84
2022-09-07T21:53:53.311Z,95623.63
2022-09-07T21:56:45.872Z,95642.00
2022-09-07T21:59:34.370Z,95645.06
2022-09-07T22:02:21.276Z,95628.19
2022-09-07T22:05:08.666Z,95629.28
2022-09-07T22:07:55.550Z,95620.13
2022-09-07T22:10:44.272Z,95626.72
2022-09-07T22:13:31.394Z,95617.97
2022-09-07T22:16:19.012Z,95606.47
2022-09-07T22:19:09.155Z,95597.75
2022-09-07T22:21:56.133Z,95588.75
2022-09-07T22:24:43.192Z,95576.16
2022-09-07T22:27:30.097Z,95577.53
2022-09-07T22:30:17.061Z,95581.13
2022-09-07T22:33:04.090Z,95578.66
2022-09-07T22:35:51.069Z,95588.47
2022-09-07T22:38:38.576Z,95579.22
2022-09-07T22:41:28.408Z,95576.28
2022-09-07T22:44:17.927Z,95571.13
2022-09-07T22:47:05.109Z,95563.09
2022-09-07T22:49:52.031Z,95551.97
2022-09-07T22:52:38.915Z,95556.03
2022-09-07T22:55:25.887Z,95544.47
2022-09-07T22:58:12.768Z,95545.91
2022-09-07T23:00:59.819Z,95522.34
2022-09-07T23:03:46.985Z,95519.25
2022-09-07T23:06:37.088Z,95508.56
2022-09-07T23:09:23.985Z,95507.25
2022-09-07T23:12:10.920Z,95539.69
2022-09-07T23:14:57.815Z,95577.63
2022-09-07T23:17:44.879Z,95557.50
2022-09-07T23:20:33.775Z,95546.94
2022-09-07T23:23:20.686Z,95562.28
2022-09-07T23:26:08.093Z,95568.44
2022-09-07T23:28:58.013Z,95554.28
2022-09-07T23:31:45.893Z,95520.88
2022-09-07T23:34:32.936Z,95499.03
2022-09-07T23:37:19.997Z,95487.38
2022-09-07T23:40:08.674Z,95473.28
2022-09-07T23:42:55.755Z,95475.78
2022-09-07T23:45:42.733Z,95475.38
2022-09-07T23:48:29.649Z,95474.59
2022-09-07T23:51:22.864Z,95468.34
2022-09-07T23:54:10.964Z,95484.41
2022-09-07T23:56:57.846Z,95494.06
2022-09-07T23:59:44.762Z,95502.44
